sensor_id;sensor_type;location;lat;lon;timestamp;temperature;humidity
3288;DHT22;3260;52.438;13.502;2022-09-27T04:02:42;13.00;1.00
3288;DHT22;3260;52.438;13.502;2022-09-27T04:05:11;13.00;1.00
3288;DHT22;3260;52.438;13.502;2022-09-27T04:07:39;13.00;1.00
3288;DHT22;3260;52.438;13.502;2022-09-27T04:10:13;13.00;1.00
3288;DHT22;3260;52.438;13.502;2022-09-27T04:12:42;13.00;1.00
3288;DHT22;3260;52.438;13.502;2022-09-27T04:15:10;13.00;1.00
3288;DHT22;3260;52.438;13.502;2022-09-27T04:17:40;13.00;1.00
3288;DHT22;3260;52.438;13.502;2022-09-27T04:20:10;12.90;1.00
3288;DHT22;3260;52.438;13.502;2022-09-27T04:22:39;13.00;1.00
3288;DHT22;3260;52.438;13.502;2022-09-27T04:25:09;13.00;1.00
3288;DHT22;3260;52.438;13.502;2022-09-27T04:27:43;13.00;1.00
3288;DHT22;3260;52.438;13.502;2022-09-27T04:30:13;13.00;1.00
3288;DHT22;3260;52.438;13.502;2022-09-27T04:32:42;13.10;1.00
3288;DHT22;3260;52.438;13.502;2022-09-27T04:35:13;13.00;1.00
3288;DHT22;3260;52.438;13.502;2022-09-27T04:37:59;13.00;1.00
3288;DHT22;3260;52.438;13.502;2022-09-27T04:40:27;13.00;1.00
3288;DHT22;3260;52.438;13.502;2022-09-27T04:42:56;13.00;1.00
3288;DHT22;3260;52.438;13.502;2022-09-27T04:45:24;13.00;1.00
3288;DHT22;3260;52.438;13.502;2022-09-27T04:47:52;13.00;1.00
3288;DHT22;3260;52.438;13.502;2022-09-27T04:50:22;13.10;1.00
3288;DHT22;3260;52.438;13.502;2022-09-27T04:52:50;13.10;1.00
3288;DHT22;3260;52.438;13.502;2022-09-27T04:55:19;13.00;1.00
3288;DHT22;3260;52.438;13.502;2022-09-27T04:57:48;13.00;1.00
3288;DHT22;3260;52.438;13.502;2022-09-27T05:00:17;12.90;1.00
3288;DHT22;3260;52.438;13.502;2022-09-27T05:02:45;12.90;1.00
3288;DHT22;3260;52.438;13.502;2022-09-27T05:05:14;12.80;1.00
3288;DHT22;3260;52.438;13.502;2022-09-27T05:07:44;12.80;1.00
3288;DHT22;3260;52.438;13.502;2022-09-27T05:10:12;12.80;1.00
3288;DHT22;3260;52.438;13.502;2022-09-27T05:12:40;12.80;1.00
3288;DHT22;3260;52.438;13.502;2022-09-27T05:15:09;12.80;1.00
3288;DHT22;3260;52.438;13.502;2022-09-27T05:17:37;12.80;1.00
3288;DHT22;3260;52.438;13.502;2022-09-27T05:20:06;12.80;1.00
3288;DHT22;3260;52.438;13.502;2022-09-27T05:22:36;12.90;1.00
3288;DHT22;3260;52.438;13.502;2022-09-27T05:25:08;12.90;1.00
3288;DHT22;3260;52.438;13.502;2022-09-27T05:27:36;12.80;1.00
3288;DHT22;3260;52.438;13.502;2022-09-27T05:30:06;12.70;1.00
3288;DHT22;3260;52.438;13.502;2022-09-27T05:32:34;12.60;1.00
3288;DHT22;3260;52.438;13.502;2022-09-27T05:35:03;12.50;1.00
3288;DHT22;3260;52.438;13.502;2022-09-27T05:37:32;12.40;1.00
3288;DHT22;3260;52.438;13.502;2022-09-27T05:40:00;12.40;1.00
3288;DHT22;3260;52.438;13.502;2022-09-27T05:42:50;12.30;1.00
3288;DHT22;3260;52.438;13.502;2022-09-27T05:45:20;12.20;1.00
3288;DHT22;3260;52.438;13.502;2022-09-27T05:47:53;12.20;1.00
3288;DHT22;3260;52.438;13.502;2022-09-27T05:50:23;12.10;1.00
3288;DHT22;3260;52.438;13.502;2022-09-27T05:52:52;12.10;1.00
3288;DHT22;3260;52.438;13.502;2022-09-27T05:55:20;12.20;1.00
3288;DHT22;3260;52.438;13.502;2022-09-27T05:57:58;12.20;1.00
3288;DHT22;3260;52.438;13.502;2022-09-27T06:00:27;12.20;1.00
3288;DHT22;3260;52.438;13.502;2022-09-27T06:02:58;12.30;1.00
3288;DHT22;3260;52.438;13.502;2022-09-27T06:05:29;12.20;1.00
3288;DHT22;3260;52.438;13.502;2022-09-27T06:08:01;12.20;1.00
3288;DHT22;3260;52.438;13.502;2022-09-27T06:10:32;12.20;1.00
3288;DHT22;3260;52.438;13.502;2022-09-27T06:13:03;12.20;1.00
3288;DHT22;3260;52.438;13.502;2022-09-27T06:15:33;12.20;1.00
3288;DHT22;3260;52.438;13.502;2022-09-27T06:18:04;12.20;1.00
3288;DHT22;3260;52.438;13.502;2022-09-27T06:20:33;12.30;1.00
3288;DHT22;3260;52.438;13.502;2022-09-27T06:23:06;12.30;1.00
3288;DHT22;3260;52.438;13.502;2022-09-27T06:25:36;12.30;1.00
3288;DHT22;3260;52.438;13.502;2022-09-27T06:28:06;12.30;1.00
3288;DHT22;3260;52.438;13.502;2022-09-27T06:30:37;12.30;1.00
3288;DHT22;3260;52.438;13.502;2022-09-27T06:33:08;12.30;1.00
3288;DHT22;3260;52.438;13.502;2022-09-27T06:35:39;12.30;1.00
3288;DHT22;3260;52.438;13.502;2022-09-27T06:38:10;12.30;1.00
3288;DHT22;3260;52.438;13.502;2022-09-27T06:40:41;12.30;1.00
3288;DHT22;3260;52.438;13.502;2022-09-27T06:43:14;12.30;1.00
3288;DHT22;3260;52.438;13.502;2022-09-27T06:45:43;12.30;1.00
3288;DHT22;3260;52.438;13.502;2022-09-27T06:48:13;12.40;1.00
3288;DHT22;3260;52.438;13.502;2022-09-27T06:50:44;12.40;1.00
3288;DHT22;3260;52.438;13.502;2022-09-27T06:53:15;12.40;1.00
3288;DHT22;3260;52.438;13.502;2022-09-27T06:55:44;12.50;1.00
3288;DHT22;3260;52.438;13.502;2022-09-27T06:58:13;12.50;1.00
3288;DHT22;3260;52.438;13.502;2022-09-27T07:00:59;12.40;1.00
3288;DHT22;3260;52.438;13.502;2022-09-27T07:03:27;12.40;1.00
3288;DHT22;3260;52.438;13.502;2022-09-27T07:06:04;12.50;1.00
3288;DHT22;3260;52.438;13.502;2022-09-27T07:08:33;12.50;1.00
3288;DHT22;3260;52.438;13.502;2022-09-27T07:11:03;12.60;1.00
3288;DHT22;3260;52.438;13.502;2022-09-27T07:13:34;12.60;1.00
3288;DHT22;3260;52.438;13.502;2022-09-27T07:16:06;12.60;1.00
3288;DHT22;3260;52.438;13.502;2022-09-27T07:18:34;12.60;1.00
3288;DHT22;3260;52.438;13.502;2022-09-27T07:21:02;12.70;1.00
3288;DHT22;3260;52.438;13.502;2022-09-27T07:23:30;12.80;1.00
3288;DHT22;3260;52.438;13.502;2022-09-27T07:26:00;12.90;1.00
3288;DHT22;3260;52.438;13.502;2022-09-27T07:28:30;12.90;1.00
3288;DHT22;3260;52.438;13.502;2022-09-27T07:31:00;12.90;1.00
3288;DHT22;3260;52.438;13.502;2022-09-27T07:33:29;13.00;1.00
3288;DHT22;3260;52.438;13.502;2022-09-27T07:35:58;13.00;1.00
3288;DHT22;3260;52.438;13.502;2022-09-27T07:38:26;13.10;1.00
3288;DHT22;3260;52.438;13.502;2022-09-27T07:40:54;13.10;1.00
3288;DHT22;3260;52.438;13.502;2022-09-27T07:43:23;13.20;1.00
3288;DHT22;3260;52.438;13.502;2022-09-27T07:45:51;13.20;1.00
3288;DHT22;3260;52.438;13.502;2022-09-27T07:48:24;13.10;1.00
3288;DHT22;3260;52.438;13.502;2022-09-27T07:50:52;13.20;1.00
3288;DHT22;3260;52.438;13.502;2022-09-27T07:53:20;13.20;1.00
3288;DHT22;3260;52.438;13.502;2022-09-27T07:55:50;13.20;1.00
3288;DHT22;3260;52.438;13.502;2022-09-27T07:58:19;13.20;1.00
3288;DHT22;3260;52.438;13.502;2022-09-27T08:00:47;13.10;1.00
3288;DHT22;3260;52.438;13.502;2022-09-27T08:03:16;13.00;1.00
3288;DHT22;3260;52.438;13.502;2022-09-27T08:05:47;13.00;1.00
3288;DHT22;3260;52.438;13.502;2022-09-27T08:08:16;13.10;1.00
3288;DHT22;3260;52.438;13.502;2022-09-27T08:10:44;13.00;1.00
3288;DHT22;3260;52.438;13.502;2022-09-27T08:13:13;13.00;1.00
3288;DHT22;3260;52.438;13.502;2022-09-27T08:15:43;13.00;1.00
3288;DHT22;3260;52.438;13.502;2022-09-27T08:18:11;13.00;1.00
3288;DHT22;3260;52.438;13.502;2022-09-27T08:20:39;13.00;1.00
3288;DHT22;3260;52.438;13.502;2022-09-27T08:23:09;12.90;1.00
3288;DHT22;3260;52.438;13.502;2022-09-27T08:25:38;12.90;1.00
3288;DHT22;3260;52.438;13.502;2022-09-27T08:28:08;13.00;1.00
3288;DHT22;3260;52.438;13.502;2022-09-27T08:30:36;13.10;1.00
3288;DHT22;3260;52.438;13.502;2022-09-27T08:33:04;13.20;1.00
3288;DHT22;3260;52.438;13.502;2022-09-27T08:35:32;13.30;1.00
3288;DHT22;3260;52.438;13.502;2022-09-27T08:38:01;13.30;1.00
3288;DHT22;3260;52.438;13.502;2022-09-27T08:40:43;13.40;1.00
3288;DHT22;3260;52.438;13.502;2022-09-27T08:43:26;13.40;1.00
3288;DHT22;3260;52.438;13.502;2022-09-27T08:46:22;13.50;1.00
3288;DHT22;3260;52.438;13.502;2022-09-27T08:49:05;13.60;1.00
3288;DHT22;3260;52.438;13.502;2022-09-27T08:51:40;13.80;1.00
3288;DHT22;3260;52.438;13.502;2022-09-27T08:54:14;13.80;1.00
3288;DHT22;3260;52.438;13.502;2022-09-27T08:56:48;13.90;1.00
3288;DHT22;3260;52.438;13.502;2022-09-27T08:59:19;13.90;1.00
3288;DHT22;3260;52.438;13.502;2022-09-27T09:01:53;13.90;1.00
3288;DHT22;3260;52.438;13.502;2022-09-27T09:04:24;13.90;1.00
3288;DHT22;3260;52.438;13.502;2022-09-27T09:07:05;13.90;1.00
3288;DHT22;3260;52.438;13.502;2022-09-27T09:09:46;13.80;1.00
3288;DHT22;3260;52.438;13.502;2022-09-27T09:12:34;13.80;1.00
3288;DHT22;3260;52.438;13.502;2022-09-27T09:15:31;13.80;1.00
3288;DHT22;3260;52.438;13.502;2022-09-27T09:18:30;13.90;1.00
3288;DHT22;3260;52.438;13.502;2022-09-27T09:21:12;13.90;1.00
3288;DHT22;3260;52.438;13.502;2022-09-27T09:24:07;14.00;1.00
3288;DHT22;3260;52.438;13.502;2022-09-27T09:26:49;14.10;1.00
3288;DHT22;3260;52.438;13.502;2022-09-27T09:29:39;14.20;1.00
3288;DHT22;3260;52.438;13.502;2022-09-27T09:32:34;14.30;1.00
3288;DHT22;3260;52.438;13.502;2022-09-27T09:35:16;14.30;1.00
3288;DHT22;3260;52.438;13.502;2022-09-27T09:37:51;14.40;1.00
3288;DHT22;3260;52.438;13.502;2022-09-27T09:40:25;14.50;1.00
3288;DHT22;3260;52.438;13.502;2022-09-27T09:43:01;14.70;1.00
3288;DHT22;3260;52.438;13.502;2022-09-27T09:45:35;14.80;1.00
3288;DHT22;3260;52.438;13.502;2022-09-27T09:48:14;15.00;1.00
3288;DHT22;3260;52.438;13.502;2022-09-27T09:50:47;15.00;1.00
3288;DHT22;3260;52.438;13.502;2022-09-27T09:53:20;14.90;1.00
3288;DHT22;3260;52.438;13.502;2022-09-27T09:55:54;14.80;1.00
3288;DHT22;3260;52.438;13.502;2022-09-27T09:58:30;14.80;1.00
3288;DHT22;3260;52.438;13.502;2022-09-27T10:01:13;15.00;1.00
3288;DHT22;3260;52.438;13.502;2022-09-27T10:03:45;15.20;1.00
3288;DHT22;3260;52.438;13.502;2022-09-27T10:06:15;15.20;1.00
3288;DHT22;3260;52.438;13.502;2022-09-27T10:08:44;15.30;1.00
3288;DHT22;3260;52.438;13.502;2022-09-27T10:11:20;15.20;1.00
3288;DHT22;3260;52.438;13.502;2022-09-27T10:13:51;15.50;1.00
3288;DHT22;3260;52.438;13.502;2022-09-27T10:16:25;15.70;1.00
3288;DHT22;3260;52.438;13.502;2022-09-27T10:18:59;16.00;1.00
3288;DHT22;3260;52.438;13.502;2022-09-27T10:21:30;16.10;1.00
3288;DHT22;3260;52.438;13.502;2022-09-27T10:24:05;15.90;1.00
3288;DHT22;3260;52.438;13.502;2022-09-27T10:26:45;15.70;1.00
3288;DHT22;3260;52.438;13.502;2022-09-27T10:29:22;15.80;1.00
3288;DHT22;3260;52.438;13.502;2022-09-27T10:31:52;16.00;1.00
3288;DHT22;3260;52.438;13.502;2022-09-27T10:34:26;16.20;1.00
3288;DHT22;3260;52.438;13.502;2022-09-27T10:37:04;16.10;1.00
3288;DHT22;3260;52.438;13.502;2022-09-27T10:39:34;16.20;1.00
3288;DHT22;3260;52.438;13.502;2022-09-27T10:42:19;16.30;1.00
3288;DHT22;3260;52.438;13.502;2022-09-27T10:44:48;16.50;1.00
3288;DHT22;3260;52.438;13.502;2022-09-27T10:47:21;16.70;1.00
3288;DHT22;3260;52.438;13.502;2022-09-27T10:50:03;16.90;1.00
3288;DHT22;3260;52.438;13.502;2022-09-27T10:52:33;17.40;1.00
3288;DHT22;3260;52.438;13.502;2022-09-27T10:55:07;18.10;1.00
3288;DHT22;3260;52.438;13.502;2022-09-27T10:57:48;18.80;1.00
3288;DHT22;3260;52.438;13.502;2022-09-27T11:00:21;19.20;1.00
3288;DHT22;3260;52.438;13.502;2022-09-27T11:02:54;18.90;1.00
3288;DHT22;3260;52.438;13.502;2022-09-27T11:05:33;18.60;1.00
3288;DHT22;3260;52.438;13.502;2022-09-27T11:08:24;18.30;1.00
3288;DHT22;3260;52.438;13.502;2022-09-27T11:11:15;18.20;1.00
3288;DHT22;3260;52.438;13.502;2022-09-27T11:14:05;18.50;1.00
3288;DHT22;3260;52.438;13.502;2022-09-27T11:16:49;18.90;1.00
3288;DHT22;3260;52.438;13.502;2022-09-27T11:19:46;19.10;1.00
3288;DHT22;3260;52.438;13.502;2022-09-27T11:22:36;19.20;1.00
3288;DHT22;3260;52.438;13.502;2022-09-27T11:25:19;19.30;1.00
3288;DHT22;3260;52.438;13.502;2022-09-27T11:28:06;18.80;1.00
3288;DHT22;3260;52.438;13.502;2022-09-27T11:30:49;18.40;1.00
3288;DHT22;3260;52.438;13.502;2022-09-27T11:33:44;18.20;1.00
3288;DHT22;3260;52.438;13.502;2022-09-27T11:36:33;17.90;1.00
3288;DHT22;3260;52.438;13.502;2022-09-27T11:39:22;17.60;1.00
3288;DHT22;3260;52.438;13.502;2022-09-27T11:42:07;17.30;1.00
3288;DHT22;3260;52.438;13.502;2022-09-27T11:45:19;17.00;1.00
3288;DHT22;3260;52.438;13.502;2022-09-27T11:48:40;16.60;1.00
3288;DHT22;3260;52.438;13.502;2022-09-27T11:51:33;15.80;1.00
3288;DHT22;3260;52.438;13.502;2022-09-27T11:54:28;15.20;1.00
3288;DHT22;3260;52.438;13.502;2022-09-27T11:57:12;14.30;1.00
3288;DHT22;3260;52.438;13.502;2022-09-27T12:00:13;13.40;1.00
3288;DHT22;3260;52.438;13.502;2022-09-27T12:06:11;12.30;1.00
3288;DHT22;3260;52.438;13.502;2022-09-27T12:08:52;12.00;1.00
3288;DHT22;3260;52.438;13.502;2022-09-27T12:11:32;11.80;1.00
3288;DHT22;3260;52.438;13.502;2022-09-27T12:14:07;11.60;7.30
3288;DHT22;3260;52.438;13.502;2022-09-27T12:16:43;11.50;25.10
3288;DHT22;3260;52.438;13.502;2022-09-27T12:19:17;11.50;59.30
3288;DHT22;3260;52.438;13.502;2022-09-27T12:21:49;11.50;82.30
3288;DHT22;3260;52.438;13.502;2022-09-27T12:24:21;11.60;94.10
3288;DHT22;3260;52.438;13.502;2022-09-27T12:26:53;11.60;99.90
3288;DHT22;3260;52.438;13.502;2022-09-27T12:29:26;11.80;99.90
3288;DHT22;3260;52.438;13.502;2022-09-27T12:32:04;12.10;99.90
3288;DHT22;3260;52.438;13.502;2022-09-27T12:34:40;12.40;99.90
3288;DHT22;3260;52.438;13.502;2022-09-27T12:37:18;12.50;99.90
3288;DHT22;3260;52.438;13.502;2022-09-27T12:39:55;12.70;99.90
3288;DHT22;3260;52.438;13.502;2022-09-27T12:42:30;12.90;99.90
3288;DHT22;3260;52.438;13.502;2022-09-27T12:45:01;13.30;99.90
3288;DHT22;3260;52.438;13.502;2022-09-27T12:47:51;13.50;99.90
3288;DHT22;3260;52.438;13.502;2022-09-27T12:50:34;13.80;99.90
3288;DHT22;3260;52.438;13.502;2022-09-27T12:53:12;13.60;99.90
3288;DHT22;3260;52.438;13.502;2022-09-27T12:56:01;13.80;99.90
3288;DHT22;3260;52.438;13.502;2022-09-27T12:58:48;14.00;99.90
3288;DHT22;3260;52.438;13.502;2022-09-27T13:01:33;14.30;99.90
3288;DHT22;3260;52.438;13.502;2022-09-27T13:04:27;14.50;99.90
3288;DHT22;3260;52.438;13.502;2022-09-27T13:07:20;14.60;99.90
3288;DHT22;3260;52.438;13.502;2022-09-27T13:10:14;15.20;99.90
3288;DHT22;3260;52.438;13.502;2022-09-27T13:13:09;15.60;99.90
3288;DHT22;3260;52.438;13.502;2022-09-27T13:15:42;15.40;1.00
3288;DHT22;3260;52.438;13.502;2022-09-27T13:18:28;15.10;1.00
3288;DHT22;3260;52.438;13.502;2022-09-27T13:24:44;14.10;1.00
3288;DHT22;3260;52.438;13.502;2022-09-27T13:27:36;13.70;1.00
3288;DHT22;3260;52.438;13.502;2022-09-27T13:33:39;13.20;1.00
3288;DHT22;3260;52.438;13.502;2022-09-27T13:36:25;13.40;1.00
3288;DHT22;3260;52.438;13.502;2022-09-27T13:39:13;14.00;31.10
3288;DHT22;3260;52.438;13.502;2022-09-27T13:42:04;16.10;99.90
3288;DHT22;3260;52.438;13.502;2022-09-27T13:44:47;17.70;1.00
3288;DHT22;3260;52.438;13.502;2022-09-27T13:47:26;18.30;1.00
3288;DHT22;3260;52.438;13.502;2022-09-27T13:50:13;18.70;1.00
3288;DHT22;3260;52.438;13.502;2022-09-27T13:52:58;18.70;1.00
3288;DHT22;3260;52.438;13.502;2022-09-27T13:55:41;18.40;1.00
3288;DHT22;3260;52.438;13.502;2022-09-27T13:58:43;17.50;1.00
3288;DHT22;3260;52.438;13.502;2022-09-27T14:01:18;16.90;1.00
3288;DHT22;3260;52.438;13.502;2022-09-27T14:03:58;16.40;1.00
3288;DHT22;3260;52.438;13.502;2022-09-27T14:06:32;16.00;1.00
3288;DHT22;3260;52.438;13.502;2022-09-27T14:09:04;15.90;1.00
3288;DHT22;3260;52.438;13.502;2022-09-27T14:11:42;15.90;1.00
3288;DHT22;3260;52.438;13.502;2022-09-27T14:14:18;15.60;1.00
3288;DHT22;3260;52.438;13.502;2022-09-27T14:16:50;15.40;1.00
3288;DHT22;3260;52.438;13.502;2022-09-27T14:19:22;15.10;1.00
3288;DHT22;3260;52.438;13.502;2022-09-27T14:22:11;15.00;1.00
3288;DHT22;3260;52.438;13.502;2022-09-27T14:24:44;14.70;1.00
3288;DHT22;3260;52.438;13.502;2022-09-27T14:27:16;14.60;1.00
3288;DHT22;3260;52.438;13.502;2022-09-27T14:29:49;14.40;1.00
3288;DHT22;3260;52.438;13.502;2022-09-27T14:32:20;14.30;1.00
3288;DHT22;3260;52.438;13.502;2022-09-27T14:35:11;14.30;1.00
3288;DHT22;3260;52.438;13.502;2022-09-27T14:37:54;14.30;1.00
3288;DHT22;3260;52.438;13.502;2022-09-27T14:40:22;14.30;1.00
3288;DHT22;3260;52.438;13.502;2022-09-27T14:42:52;14.30;1.00
3288;DHT22;3260;52.438;13.502;2022-09-27T14:45:26;14.40;1.00
3288;DHT22;3260;52.438;13.502;2022-09-27T14:48:01;14.90;1.00
3288;DHT22;3260;52.438;13.502;2022-09-27T14:50:30;15.80;1.00
3288;DHT22;3260;52.438;13.502;2022-09-27T14:52:58;16.20;1.00
3288;DHT22;3260;52.438;13.502;2022-09-27T14:55:30;16.10;1.00
3288;DHT22;3260;52.438;13.502;2022-09-27T14:58:01;15.90;1.00
3288;DHT22;3260;52.438;13.502;2022-09-27T15:00:32;16.10;1.00
3288;DHT22;3260;52.438;13.502;2022-09-27T15:03:04;17.80;1.00
3288;DHT22;3260;52.438;13.502;2022-09-27T15:05:40;18.70;1.00
3288;DHT22;3260;52.438;13.502;2022-09-27T15:08:10;18.90;1.00
3288;DHT22;3260;52.438;13.502;2022-09-27T15:10:41;18.80;1.00
3288;DHT22;3260;52.438;13.502;2022-09-27T15:13:14;18.60;1.00
3288;DHT22;3260;52.438;13.502;2022-09-27T15:15:44;18.10;1.00
3288;DHT22;3260;52.438;13.502;2022-09-27T15:18:39;17.30;1.00
3288;DHT22;3260;52.438;13.502;2022-09-27T15:21:10;16.80;1.00
3288;DHT22;3260;52.438;13.502;2022-09-27T15:23:41;16.20;1.00
3288;DHT22;3260;52.438;13.502;2022-09-27T15:26:16;15.80;1.00
3288;DHT22;3260;52.438;13.502;2022-09-27T15:28:49;15.50;1.00
3288;DHT22;3260;52.438;13.502;2022-09-27T15:31:27;15.20;1.00
3288;DHT22;3260;52.438;13.502;2022-09-27T15:33:57;14.80;1.00
3288;DHT22;3260;52.438;13.502;2022-09-27T15:36:51;14.50;1.00
3288;DHT22;3260;52.438;13.502;2022-09-27T15:39:26;14.30;1.00
3288;DHT22;3260;52.438;13.502;2022-09-27T15:42:04;14.00;1.00
3288;DHT22;3260;52.438;13.502;2022-09-27T15:44:37;13.70;1.00
3288;DHT22;3260;52.438;13.502;2022-09-27T15:47:36;13.40;1.00
3288;DHT22;3260;52.438;13.502;2022-09-27T15:50:34;13.10;1.00
3288;DHT22;3260;52.438;13.502;2022-09-27T15:53:05;13.00;1.00
3288;DHT22;3260;52.438;13.502;2022-09-27T15:55:39;12.70;1.00
3288;DHT22;3260;52.438;13.502;2022-09-27T15:58:12;12.60;1.00
3288;DHT22;3260;52.438;13.502;2022-09-27T16:00:52;12.60;1.00
3288;DHT22;3260;52.438;13.502;2022-09-27T16:03:22;12.50;1.00
3288;DHT22;3260;52.438;13.502;2022-09-27T16:05:51;12.50;1.00
3288;DHT22;3260;52.438;13.502;2022-09-27T16:08:23;12.50;1.00
3288;DHT22;3260;52.438;13.502;2022-09-27T16:10:53;12.50;1.00
3288;DHT22;3260;52.438;13.502;2022-09-27T16:13:23;12.50;1.00
3288;DHT22;3260;52.438;13.502;2022-09-27T16:15:59;12.40;1.00
3288;DHT22;3260;52.438;13.502;2022-09-27T16:18:28;12.40;1.00
3288;DHT22;3260;52.438;13.502;2022-09-27T16:20:57;12.40;1.00
3288;DHT22;3260;52.438;13.502;2022-09-27T16:23:27;12.60;1.00
3288;DHT22;3260;52.438;13.502;2022-09-27T16:25:55;12.90;1.00
3288;DHT22;3260;52.438;13.502;2022-09-27T16:28:23;13.30;1.00
3288;DHT22;3260;52.438;13.502;2022-09-27T16:30:51;13.40;1.00
3288;DHT22;3260;52.438;13.502;2022-09-27T16:33:19;13.40;1.00
3288;DHT22;3260;52.438;13.502;2022-09-27T16:35:47;13.30;1.00
3288;DHT22;3260;52.438;13.502;2022-09-27T16:38:15;13.20;1.00
3288;DHT22;3260;52.438;13.502;2022-09-27T16:40:45;13.10;1.00
3288;DHT22;3260;52.438;13.502;2022-09-27T16:43:13;13.00;1.00
3288;DHT22;3260;52.438;13.502;2022-09-27T16:45:41;12.90;1.00
3288;DHT22;3260;52.438;13.502;2022-09-27T16:48:09;12.80;1.00
3288;DHT22;3260;52.438;13.502;2022-09-27T16:50:37;12.70;1.00
3288;DHT22;3260;52.438;13.502;2022-09-27T16:53:23;12.50;1.00
3288;DHT22;3260;52.438;13.502;2022-09-27T16:55:52;12.50;1.00
3288;DHT22;3260;52.438;13.502;2022-09-27T16:58:25;12.40;1.00
3288;DHT22;3260;52.438;13.502;2022-09-27T17:00:56;12.40;1.00
3288;DHT22;3260;52.438;13.502;2022-09-27T17:03:25;12.30;1.00
3288;DHT22;3260;52.438;13.502;2022-09-27T17:05:54;12.20;1.00
3288;DHT22;3260;52.438;13.502;2022-09-27T17:08:27;12.20;1.00
3288;DHT22;3260;52.438;13.502;2022-09-27T17:10:56;12.20;1.00
3288;DHT22;3260;52.438;13.502;2022-09-27T17:13:25;12.10;1.00
3288;DHT22;3260;52.438;13.502;2022-09-27T17:15:54;12.10;1.00
3288;DHT22;3260;52.438;13.502;2022-09-27T17:18:22;12.10;1.00
3288;DHT22;3260;52.438;13.502;2022-09-27T17:20:50;12.10;1.00
3288;DHT22;3260;52.438;13.502;2022-09-27T17:23:18;12.00;1.00
3288;DHT22;3260;52.438;13.502;2022-09-27T17:25:46;12.00;1.00
3288;DHT22;3260;52.438;13.502;2022-09-27T17:28:16;12.00;1.00
3288;DHT22;3260;52.438;13.502;2022-09-27T17:30:44;11.90;1.00
3288;DHT22;3260;52.438;13.502;2022-09-27T17:33:12;11.90;1.00
3288;DHT22;3260;52.438;13.502;2022-09-27T17:35:40;11.90;1.00
3288;DHT22;3260;52.438;13.502;2022-09-27T17:38:09;11.90;1.00
3288;DHT22;3260;52.438;13.502;2022-09-27T17:40:37;11.90;1.00
3288;DHT22;3260;52.438;13.502;2022-09-27T17:43:06;11.90;1.00
3288;DHT22;3260;52.438;13.502;2022-09-27T17:45:35;11.80;1.00
3288;DHT22;3260;52.438;13.502;2022-09-27T17:48:03;11.80;1.00
3288;DHT22;3260;52.438;13.502;2022-09-27T17:50:48;11.80;1.00
3288;DHT22;3260;52.438;13.502;2022-09-27T17:53:18;11.80;1.00
3288;DHT22;3260;52.438;13.502;2022-09-27T17:55:46;11.80;1.00
3288;DHT22;3260;52.438;13.502;2022-09-27T17:58:14;11.80;1.00
3288;DHT22;3260;52.438;13.502;2022-09-27T18:00:43;11.80;1.00
3288;DHT22;3260;52.438;13.502;2022-09-27T18:03:12;11.80;1.00
3288;DHT22;3260;52.438;13.502;2022-09-27T18:05:40;11.80;1.00
3288;DHT22;3260;52.438;13.502;2022-09-27T18:08:09;11.80;1.00
3288;DHT22;3260;52.438;13.502;2022-09-27T18:10:37;11.70;1.00
3288;DHT22;3260;52.438;13.502;2022-09-27T18:13:05;11.70;1.00
3288;DHT22;3260;52.438;13.502;2022-09-27T18:15:33;11.70;1.00
3288;DHT22;3260;52.438;13.502;2022-09-27T18:18:04;11.60;1.00
3288;DHT22;3260;52.438;13.502;2022-09-27T18:20:33;11.60;1.00
3288;DHT22;3260;52.438;13.502;2022-09-27T18:23:01;11.60;1.00
3288;DHT22;3260;52.438;13.502;2022-09-27T18:25:29;11.50;1.00
3288;DHT22;3260;52.438;13.502;2022-09-27T18:27:58;11.50;1.00
3288;DHT22;3260;52.438;13.502;2022-09-27T18:30:27;11.50;1.00
3288;DHT22;3260;52.438;13.502;2022-09-27T18:32:55;11.40;1.00
3288;DHT22;3260;52.438;13.502;2022-09-27T18:35:24;11.40;1.00
3288;DHT22;3260;52.438;13.502;2022-09-27T18:37:54;11.30;1.00
3288;DHT22;3260;52.438;13.502;2022-09-27T18:40:22;11.20;1.00
3288;DHT22;3260;52.438;13.502;2022-09-27T18:43:11;11.20;1.00
3288;DHT22;3260;52.438;13.502;2022-09-27T18:45:39;11.10;1.00
3288;DHT22;3260;52.438;13.502;2022-09-27T18:48:07;11.10;1.00
3288;DHT22;3260;52.438;13.502;2022-09-27T18:50:36;11.00;1.00
3288;DHT22;3260;52.438;13.502;2022-09-27T18:53:06;10.90;1.00
3288;DHT22;3260;52.438;13.502;2022-09-27T18:55:36;10.90;1.00
3288;DHT22;3260;52.438;13.502;2022-09-27T18:58:05;10.90;1.00
3288;DHT22;3260;52.438;13.502;2022-09-27T19:00:33;10.80;1.00
3288;DHT22;3260;52.438;13.502;2022-09-27T19:03:02;10.80;1.00
3288;DHT22;3260;52.438;13.502;2022-09-27T19:05:30;10.80;1.00
3288;DHT22;3260;52.438;13.502;2022-09-27T19:08:00;10.70;1.00
3288;DHT22;3260;52.438;13.502;2022-09-27T19:10:28;10.70;1.00
3288;DHT22;3260;52.438;13.502;2022-09-27T19:12:56;10.70;1.00
3288;DHT22;3260;52.438;13.502;2022-09-27T19:15:26;10.60;1.00
3288;DHT22;3260;52.438;13.502;2022-09-27T19:17:54;10.50;1.00
3288;DHT22;3260;52.438;13.502;2022-09-27T19:20:22;10.50;1.00
3288;DHT22;3260;52.438;13.502;2022-09-27T19:22:51;10.40;1.00
3288;DHT22;3260;52.438;13.502;2022-09-27T19:25:20;10.40;1.00
3288;DHT22;3260;52.438;13.502;2022-09-27T19:27:48;10.40;1.00
3288;DHT22;3260;52.438;13.502;2022-09-27T19:30:16;10.40;1.00
3288;DHT22;3260;52.438;13.502;2022-09-27T19:32:45;10.40;1.00
3288;DHT22;3260;52.438;13.502;2022-09-27T19:35:14;10.30;1.00
3288;DHT22;3260;52.438;13.502;2022-09-27T19:37:42;10.30;1.00
3288;DHT22;3260;52.438;13.502;2022-09-27T19:40:10;10.30;1.00
3288;DHT22;3260;52.438;13.502;2022-09-27T19:42:40;10.30;1.00
3288;DHT22;3260;52.438;13.502;2022-09-27T19:45:09;10.20;1.00
3288;DHT22;3260;52.438;13.502;2022-09-27T19:47:38;10.20;1.00
3288;DHT22;3260;52.438;13.502;2022-09-27T19:50:06;10.10;1.00
3288;DHT22;3260;52.438;13.502;2022-09-27T19:52:35;10.10;1.00
3288;DHT22;3260;52.438;13.502;2022-09-27T19:55:05;10.10;1.00
3288;DHT22;3260;52.438;13.502;2022-09-27T19:57:34;10.10;1.00
3288;DHT22;3260;52.438;13.502;2022-09-27T20:00:04;10.00;1.00
3288;DHT22;3260;52.438;13.502;2022-09-27T20:02:33;10.00;1.00
3288;DHT22;3260;52.438;13.502;2022-09-27T20:05:01;10.00;1.00
3288;DHT22;3260;52.438;13.502;2022-09-27T20:07:29;10.00;1.00
3288;DHT22;3260;52.438;13.502;2022-09-27T20:10:00;9.90;1.00
3288;DHT22;3260;52.438;13.502;2022-09-27T20:12:28;9.90;1.00
3288;DHT22;3260;52.438;13.502;2022-09-27T20:14:56;9.80;1.00
3288;DHT22;3260;52.438;13.502;2022-09-27T20:17:25;9.80;1.00
3288;DHT22;3260;52.438;13.502;2022-09-27T20:19:58;9.80;1.00
3288;DHT22;3260;52.438;13.502;2022-09-27T20:22:26;9.80;1.00
3288;DHT22;3260;52.438;13.502;2022-09-27T20:24:54;9.70;1.00
3288;DHT22;3260;52.438;13.502;2022-09-27T20:27:22;9.70;1.00
3288;DHT22;3260;52.438;13.502;2022-09-27T20:29:50;9.60;1.00
3288;DHT22;3260;52.438;13.502;2022-09-27T20:32:18;9.60;1.00
3288;DHT22;3260;52.438;13.502;2022-09-27T20:34:55;9.60;1.00
3288;DHT22;3260;52.438;13.502;2022-09-27T20:37:23;9.60;1.00
3288;DHT22;3260;52.438;13.502;2022-09-27T20:39:51;9.50;1.00
3288;DHT22;3260;52.438;13.502;2022-09-27T20:42:20;9.50;1.00
3288;DHT22;3260;52.438;13.502;2022-09-27T20:44:48;9.50;1.00
3288;DHT22;3260;52.438;13.502;2022-09-27T20:47:20;9.60;1.00
3288;DHT22;3260;52.438;13.502;2022-09-27T20:49:48;9.60;1.00
3288;DHT22;3260;52.438;13.502;2022-09-27T20:52:18;9.70;1.00
3288;DHT22;3260;52.438;13.502;2022-09-27T20:54:46;9.80;1.00
3288;DHT22;3260;52.438;13.502;2022-09-27T20:57:14;9.90;1.00